Time;durP1;ratioP1;P1;durP2;ratioP2;P2;SDS_P1;SDS_P2;PMS_P1;PMS_P2;Temp;Humidity;BMP_temperature;BMP_pressure;BME280_temperature;BME280_humidity;BME280_pressure;Samples;Min_cycle;Max_cycle;Signal;HPM_P1;HPM_P2
2023/08/10 04:01:11;;;;;;;5.40;2.47;;;14.80;99.90;;;;;;5555075;23;20487;-68
2023/08/10 04:03:36;;;;;;;5.90;2.57;;;14.90;99.90;;;;;;4941785;29;20023;-68
2023/08/10 04:06:02;;;;;;;4.22;2.60;;;14.90;99.90;;;;;;4958686;29;20358;-68
2023/08/10 04:08:28;;;;;;;3.97;2.37;;;14.90;99.90;;;;;;4958539;29;20035;-68
2023/08/10 04:10:53;;;;;;;3.58;2.28;;;15.00;99.90;;;;;;4958609;28;20102;-66
2023/08/10 04:13:19;;;;;;;3.27;2.30;;;15.30;99.90;;;;;;4957997;29;20100;-68
2023/08/10 04:15:44;;;;;;;4.05;2.10;;;15.30;99.90;;;;;;4942305;29;20034;-67
2023/08/10 04:18:10;;;;;;;3.95;2.60;;;15.20;99.90;;;;;;4956834;29;20023;-66
2023/08/10 04:20:35;;;;;;;3.20;2.63;;;15.10;99.90;;;;;;4939563;29;20034;-66
2023/08/10 04:23:01;;;;;;;5.10;2.30;;;15.10;99.90;;;;;;4939407;29;20396;-67
2023/08/10 04:25:26;;;;;;;3.77;2.00;;;15.10;99.90;;;;;;4938596;29;20469;-67
2023/08/10 04:27:53;;;;;;;;;;;15.20;99.90;;;;;;4946954;28;20392;-66
2023/08/10 04:30:18;;;;;;;3.50;2.22;;;15.10;99.90;;;;;;4955921;29;19910;-66
2023/08/10 04:32:44;;;;;;;7.10;2.97;;;15.30;99.90;;;;;;4957567;29;20484;-67
2023/08/10 04:35:09;;;;;;;4.40;2.60;;;15.30;99.90;;;;;;4957973;29;20263;-67
2023/08/10 04:37:35;;;;;;;4.07;2.80;;;15.20;99.90;;;;;;4939936;29;20289;-70
2023/08/10 04:40:05;;;;;;;4.38;2.47;;;15.20;99.90;;;;;;4940624;29;20046;-67
2023/08/10 04:42:31;;;;;;;5.70;2.60;;;15.20;99.90;;;;;;4958062;28;20484;-65
2023/08/10 04:44:57;;;;;;;4.25;2.40;;;15.10;99.90;;;;;;4956451;28;20035;-67
2023/08/10 04:47:23;;;;;;;4.50;2.25;;;15.20;99.90;;;;;;4957866;29;20039;-65
2023/08/10 04:49:48;;;;;;;5.00;2.50;;;15.30;99.90;;;;;;4955976;29;20400;-65
2023/08/10 04:52:14;;;;;;;4.97;2.28;;;15.20;99.90;;;;;;4941340;28;20342;-64
2023/08/10 04:54:42;;;;;;;3.73;2.80;;;15.20;99.90;;;;;;4938164;29;20036;-64
2023/08/10 04:57:07;;;;;;;3.97;2.15;;;15.20;99.90;;;;;;4921010;29;20024;-64
2023/08/10 04:59:33;;;;;;;4.90;2.53;;;15.20;99.90;;;;;;4928643;29;20034;-64
2023/08/10 05:01:58;;;;;;;3.60;2.80;;;15.30;99.90;;;;;;4939881;29;20501;-66
2023/08/10 05:04:25;;;;;;;3.43;2.67;;;15.30;99.90;;;;;;4957128;29;20503;-69
2023/08/10 05:06:51;;;;;;;3.30;2.45;;;15.40;99.90;;;;;;4957829;29;20158;-70
2023/08/10 05:09:16;;;;;;;;;;;15.50;99.90;;;;;;4956808;29;20088;-67
2023/08/10 05:11:42;;;;;;;7.10;2.65;;;15.60;99.90;;;;;;4956565;28;19914;-67
2023/08/10 05:14:08;;;;;;;7.17;2.87;;;15.70;99.90;;;;;;4956970;29;20062;-68
2023/08/10 05:16:33;;;;;;;4.88;2.50;;;15.80;99.90;;;;;;4939412;29;20038;-66
2023/08/10 05:18:59;;;;;;;6.13;2.63;;;15.90;99.90;;;;;;4957891;29;20043;-68
2023/08/10 05:21:25;;;;;;;3.93;2.40;;;16.10;99.90;;;;;;4935801;29;20075;-67
2023/08/10 05:23:50;;;;;;;5.75;2.80;;;16.10;99.90;;;;;;4934881;29;20286;-66
2023/08/10 05:26:16;;;;;;;5.15;2.70;;;16.20;99.90;;;;;;4941339;29;20027;-65
2023/08/10 05:28:41;;;;;;;6.57;2.53;;;16.30;99.90;;;;;;4943339;29;20035;-65
2023/08/10 05:31:07;;;;;;;4.47;2.90;;;16.40;99.90;;;;;;4952448;28;20287;-65
2023/08/10 05:33:32;;;;;;;3.13;2.60;;;16.40;99.90;;;;;;4944215;29;20343;-68
2023/08/10 05:35:58;;;;;;;6.20;3.95;;;16.40;99.90;;;;;;4958245;28;20062;-66
2023/08/10 05:38:25;;;;;;;5.57;3.07;;;16.40;99.90;;;;;;4961639;28;20043;-68
2023/08/10 05:40:51;;;;;;;6.15;3.20;;;16.50;99.90;;;;;;4959019;29;20024;-66
2023/08/10 05:43:16;;;;;;;3.60;2.93;;;16.60;99.90;;;;;;4959755;29;20042;-67
2023/08/10 05:45:42;;;;;;;7.57;2.73;;;16.70;99.90;;;;;;4961373;29;20329;-67
2023/08/10 05:48:12;;;;;;;4.20;2.50;;;16.70;99.90;;;;;;4958838;29;20263;-67
2023/08/10 05:50:38;;;;;;;6.25;2.90;;;16.60;99.90;;;;;;4961979;29;20027;-67
2023/08/10 05:53:06;;;;;;;5.57;3.03;;;16.70;99.90;;;;;;4958946;29;20062;-66
2023/08/10 05:55:31;;;;;;;5.70;2.75;;;16.70;99.90;;;;;;4959111;29;20031;-68
2023/08/10 05:57:57;;;;;;;5.53;3.30;;;16.70;99.90;;;;;;4959341;29;20077;-67
2023/08/10 06:00:22;;;;;;;8.65;3.17;;;16.80;99.90;;;;;;4960880;29;20507;-67
2023/08/10 06:02:49;;;;;;;5.55;2.75;;;16.90;99.90;;;;;;4960076;29;20476;-68
2023/08/10 06:05:14;;;;;;;4.63;2.50;;;16.80;99.90;;;;;;4957320;29;20038;-68
2023/08/10 06:07:41;;;;;;;4.90;3.10;;;16.90;99.90;;;;;;4957215;29;20384;-68
2023/08/10 06:10:06;;;;;;;;;;;16.90;99.90;;;;;;4956710;29;20027;-68
2023/08/10 06:12:32;;;;;;;4.97;3.10;;;17.00;99.90;;;;;;4956003;29;20419;-68
2023/08/10 06:14:58;;;;;;;5.68;2.92;;;16.80;99.90;;;;;;4956115;29;20439;-67
2023/08/10 06:17:24;;;;;;;5.32;3.03;;;16.80;99.90;;;;;;4955911;29;20035;-68
2023/08/10 06:19:53;;;;;;;5.03;2.88;;;16.90;99.90;;;;;;4955929;29;20387;-68
2023/08/10 06:22:20;;;;;;;6.45;3.40;;;16.90;99.90;;;;;;4955756;29;20381;-68
2023/08/10 06:24:46;;;;;;;7.72;3.90;;;16.90;99.90;;;;;;4956028;29;20086;-68
2023/08/10 06:27:12;;;;;;;5.72;3.30;;;17.00;99.90;;;;;;4956043;29;20033;-68
2023/08/10 06:29:38;;;;;;;3.85;3.05;;;17.10;99.90;;;;;;4956265;29;20423;-69
2023/08/10 06:32:05;;;;;;;8.27;3.13;;;17.20;99.90;;;;;;4956125;29;20109;-68
2023/08/10 06:34:31;;;;;;;5.40;3.33;;;17.40;99.90;;;;;;4957885;29;20275;-68
2023/08/10 06:36:57;;;;;;;3.70;3.15;;;17.60;99.90;;;;;;4956278;29;20042;-69
2023/08/10 06:39:23;;;;;;;5.75;3.17;;;17.70;99.90;;;;;;4956656;29;20396;-68
2023/08/10 06:41:49;;;;;;;6.78;3.15;;;17.90;99.90;;;;;;4955901;29;20024;-68
2023/08/10 06:44:15;;;;;;;7.55;3.25;;;18.10;99.90;;;;;;4955870;29;20034;-69
2023/08/10 06:46:40;;;;;;;9.00;3.38;;;18.30;99.90;;;;;;4938328;29;20031;-69
2023/08/10 06:49:07;;;;;;;5.35;3.28;;;18.50;99.90;;;;;;4937703;29;20023;-68
2023/08/10 06:51:33;;;;;;;5.88;3.00;;;18.60;99.90;;;;;;4955445;29;20032;-68
2023/08/10 06:53:59;;;;;;;4.43;3.47;;;18.70;99.90;;;;;;4955733;29;20027;-68
2023/08/10 06:56:24;;;;;;;5.90;3.20;;;18.70;99.90;;;;;;4956122;29;20476;-68
2023/08/10 06:58:50;;;;;;;5.30;2.83;;;18.60;99.90;;;;;;4956308;29;20027;-68
2023/08/10 07:01:16;;;;;;;6.22;2.85;;;18.60;99.90;;;;;;4955506;29;20504;-68
2023/08/10 07:03:42;;;;;;;4.63;2.67;;;18.60;99.90;;;;;;4955666;29;20027;-67
2023/08/10 07:06:07;;;;;;;6.25;2.90;;;18.60;99.90;;;;;;4938457;29;20409;-68
2023/08/10 07:08:33;;;;;;;5.45;3.50;;;18.50;99.90;;;;;;4955371;29;20098;-68
2023/08/10 07:11:02;;;;;;;8.23;3.95;;;18.30;99.90;;;;;;4955204;29;20035;-68
2023/08/10 07:13:28;;;;;;;6.30;3.13;;;18.30;99.90;;;;;;4954961;29;20023;-68
2023/08/10 07:15:53;;;;;;;5.63;3.35;;;18.20;99.90;;;;;;4955523;29;20435;-68
2023/08/10 07:18:19;;;;;;;5.65;3.30;;;18.20;99.90;;;;;;4955362;29;20038;-69
2023/08/10 07:20:44;;;;;;;9.20;3.05;;;18.20;99.90;;;;;;4937969;29;20038;-68
2023/08/10 07:23:11;;;;;;;5.95;3.10;;;18.20;99.90;;;;;;4955629;29;20031;-68
2023/08/10 07:25:37;;;;;;;7.25;3.95;;;18.10;99.90;;;;;;4955665;29;20023;-67
2023/08/10 07:28:06;;;;;;;;;;;18.10;99.90;;;;;;4955866;29;20536;-67
2023/08/10 07:30:31;;;;;;;5.78;3.90;;;18.10;99.90;;;;;;4955177;29;20381;-69
2023/08/10 07:32:57;;;;;;;7.05;3.58;;;18.20;99.90;;;;;;4955328;29;20094;-67
2023/08/10 07:35:23;;;;;;;7.47;3.15;;;18.30;99.90;;;;;;4955422;29;20035;-67
2023/08/10 07:37:49;;;;;;;8.57;3.88;;;18.30;99.90;;;;;;4955859;29;20038;-68
2023/08/10 07:40:15;;;;;;;;;;;18.40;99.90;;;;;;4938314;29;20031;-67
2023/08/10 07:42:41;;;;;;;8.07;3.60;;;18.40;99.90;;;;;;4954872;29;19910;-68
2023/08/10 07:45:10;;;;;;;6.65;3.88;;;18.40;99.90;;;;;;4955593;29;20499;-67
2023/08/10 07:47:36;;;;;;;8.73;3.83;;;18.40;99.90;;;;;;4938309;29;20023;-67
2023/08/10 07:50:03;;;;;;;7.60;4.15;;;18.50;99.90;;;;;;4954796;29;20034;-68
2023/08/10 07:52:28;;;;;;;5.22;4.15;;;18.50;99.90;;;;;;4954425;29;20472;-68
2023/08/10 07:54:54;;;;;;;5.13;3.97;;;18.40;99.90;;;;;;4937678;29;20023;-68
2023/08/10 07:57:20;;;;;;;8.07;4.05;;;18.60;99.90;;;;;;4956777;29;20095;-70
2023/08/10 07:59:46;;;;;;;7.25;4.15;;;18.80;99.90;;;;;;4940551;28;20460;-69
2023/08/10 08:02:11;;;;;;;7.68;5.05;;;19.00;99.90;;;;;;4961156;29;20043;-69
2023/08/10 08:04:37;;;;;;;6.20;4.22;;;18.90;99.90;;;;;;4965784;29;20027;-68
2023/08/10 08:07:03;;;;;;;11.50;4.50;;;18.90;99.90;;;;;;4944718;29;20055;-69
2023/08/10 08:09:28;;;;;;;11.45;5.00;;;19.00;99.90;;;;;;4961278;29;20023;-68
2023/08/10 08:11:54;;;;;;;5.90;4.55;;;19.00;99.90;;;;;;4961253;29;20118;-69
2023/08/10 08:14:19;;;;;;;6.80;4.05;;;19.10;99.90;;;;;;4965262;29;20034;-69
2023/08/10 08:16:45;;;;;;;12.55;5.05;;;19.20;99.90;;;;;;4963412;29;20027;-68
2023/08/10 08:19:11;;;;;;;7.93;4.15;;;19.40;99.90;;;;;;4944656;29;20113;-68
2023/08/10 08:21:36;;;;;;;12.90;6.25;;;19.60;99.90;;;;;;4964002;29;20110;-68
2023/08/10 08:24:03;;;;;;;12.13;5.53;;;19.80;99.90;;;;;;4944827;29;20058;-67
2023/08/10 08:26:30;;;;;;;11.07;4.88;;;20.00;99.90;;;;;;4959645;29;20030;-68
2023/08/10 08:28:58;;;;;;;11.38;4.70;;;20.40;99.90;;;;;;4959857;29;20028;-69
2023/08/10 08:31:25;;;;;;;6.30;3.60;;;21.50;99.90;;;;;;4958628;29;20019;-68
2023/08/10 08:33:51;;;;;;;7.60;3.35;;;23.90;99.90;;;;;;4957964;29;20055;-68
2023/08/10 08:36:18;;;;;;;6.47;3.38;;;26.90;99.90;;;;;;4958718;29;20114;-69
2023/08/10 08:38:44;;;;;;;4.47;3.33;;;29.60;97.10;;;;;;4959989;29;20102;-68
2023/08/10 08:41:10;;;;;;;5.68;2.97;;;31.50;94.20;;;;;;4959630;29;20028;-69
2023/08/10 08:43:37;;;;;;;6.13;3.58;;;33.50;91.20;;;;;;4961711;29;20135;-69
2023/08/10 08:46:04;;;;;;;6.00;3.15;;;34.60;88.10;;;;;;4960033;29;20035;-69
2023/08/10 08:48:30;;;;;;;4.53;2.60;;;36.30;82.60;;;;;;4959421;29;20111;-69
2023/08/10 08:50:57;;;;;;;3.85;2.80;;;36.40;80.60;;;;;;4959233;29;20086;-69
2023/08/10 08:53:23;;;;;;;4.38;2.72;;;37.10;78.30;;;;;;4942586;29;20038;-69
2023/08/10 08:55:49;;;;;;;7.60;3.47;;;37.90;75.80;;;;;;4943178;29;20023;-68
2023/08/10 08:58:16;;;;;;;4.65;3.10;;;37.70;74.40;;;;;;4960331;29;20042;-69
2023/08/10 09:00:54;;;;;;;7.13;3.15;;;38.00;73.10;;;;;;4957546;29;20050;-69
2023/08/10 09:03:25;;;;;;;3.75;3.10;;;36.90;72.80;;;;;;4939888;29;20139;-69
2023/08/10 09:05:50;;;;;;;4.78;2.92;;;37.50;73.30;;;;;;4958853;29;20059;-70
2023/08/10 09:08:18;;;;;;;4.43;2.92;;;38.60;71.10;;;;;;4942049;29;20042;-69
2023/08/10 09:10:45;;;;;;;5.75;3.30;;;39.60;69.60;;;;;;4941348;29;20044;-71
2023/08/10 09:13:13;;;;;;;2.88;2.55;;;40.20;67.60;;;;;;4958370;28;20023;-67
2023/08/10 09:15:39;;;;;;;4.90;3.33;;;37.80;70.00;;;;;;4942689;29;20032;-69
2023/08/10 09:18:08;;;;;;;5.47;3.05;;;37.10;70.90;;;;;;4963323;29;20404;-69
2023/08/10 09:20:34;;;;;;;3.10;2.80;;;38.20;69.10;;;;;;4944645;29;20029;-69
2023/08/10 09:23:00;;;;;;;4.15;2.70;;;38.40;69.00;;;;;;4959974;29;20102;-68
2023/08/10 09:25:26;;;;;;;6.78;3.55;;;39.20;67.30;;;;;;4962669;29;20031;-68
2023/08/10 09:27:52;;;;;;;4.30;3.20;;;37.20;68.90;;;;;;4960424;29;20027;-69
2023/08/10 09:30:19;;;;;;;5.30;2.65;;;36.50;69.70;;;;;;4959033;29;20499;-69
2023/08/10 09:32:45;;;;;;;3.53;2.95;;;37.60;69.80;;;;;;4958608;29;20111;-69
2023/08/10 09:35:14;;;;;;;7.05;3.25;;;38.90;67.40;;;;;;4959443;29;20034;-70
2023/08/10 09:37:39;;;;;;;6.78;3.20;;;39.30;67.00;;;;;;4960736;29;20053;-69
2023/08/10 09:40:07;;;;;;;4.05;3.10;;;40.10;65.70;;;;;;4960471;29;20093;-69
2023/08/10 09:42:34;;;;;;;4.55;3.35;;;40.90;65.10;;;;;;4956387;29;20106;-68
2023/08/10 09:45:06;;;;;;;4.22;3.08;;;41.70;63.70;;;;;;4956360;29;20027;-68
2023/08/10 09:47:39;;;;;;;6.15;3.03;;;41.50;62.50;;;;;;4956452;29;20380;-68
2023/08/10 09:50:12;;;;;;;3.13;2.80;;;41.00;62.10;;;;;;4956634;29;20027;-68
2023/08/10 09:52:38;;;;;;;3.40;2.50;;;40.20;62.30;;;;;;4956213;29;20504;-68
2023/08/10 09:55:05;;;;;;;4.68;2.83;;;40.10;63.60;;;;;;4939312;29;20121;-68
2023/08/10 09:57:31;;;;;;;5.03;2.90;;;39.10;63.80;;;;;;4939156;29;20031;-69
2023/08/10 09:59:57;;;;;;;4.05;2.92;;;39.60;63.60;;;;;;4956109;29;20030;-69
2023/08/10 10:02:24;;;;;;;4.90;3.10;;;39.10;63.20;;;;;;4955869;29;20035;-69
2023/08/10 10:04:50;;;;;;;5.68;3.30;;;39.20;63.70;;;;;;4956263;29;20023;-69
2023/08/10 10:07:25;;;;;;;5.90;2.80;;;39.00;63.50;;;;;;4955885;29;20055;-68
2023/08/10 10:09:51;;;;;;;3.27;2.60;;;37.60;64.80;;;;;;4955827;29;20027;-69
2023/08/10 10:12:18;;;;;;;5.10;2.45;;;39.10;63.50;;;;;;4938470;29;20031;-69
2023/08/10 10:14:45;;;;;;;2.97;2.65;;;39.80;62.40;;;;;;4938435;29;20023;-69
2023/08/10 10:17:14;;;;;;;4.30;2.55;;;39.20;61.10;;;;;;4978078;23;20051;-64
2023/08/10 10:19:40;;;;;;;5.60;2.72;;;39.20;61.30;;;;;;4955875;29;20058;-64
2023/08/10 10:22:06;;;;;;;3.33;2.47;;;39.30;62.20;;;;;;4956440;29;20042;-64
2023/08/10 10:24:33;;;;;;;5.00;2.60;;;39.00;62.50;;;;;;4956032;28;20043;-64
2023/08/10 10:27:01;;;;;;;3.13;2.70;;;38.00;63.00;;;;;;4956393;29;20023;-65
2023/08/10 10:29:37;;;;;;;7.18;2.83;;;34.90;65.60;;;;;;4938782;29;20078;-65
2023/08/10 10:32:11;;;;;;;3.90;2.65;;;32.80;68.90;;;;;;4955969;29;20054;-63
2023/08/10 10:34:38;;;;;;;2.88;2.33;;;31.30;71.70;;;;;;4955791;29;20035;-64
2023/08/10 10:37:15;;;;;;;4.47;2.53;;;29.90;75.00;;;;;;4956024;29;20039;-65
2023/08/10 10:39:44;;;;;;;4.00;2.47;;;30.90;75.10;;;;;;4955795;29;20055;-64
2023/08/10 10:42:13;;;;;;;4.63;2.47;;;30.70;74.80;;;;;;4956297;29;20023;-64
2023/08/10 10:45:14;;;;;;;5.10;2.63;;;32.50;72.30;;;;;;4955962;29;20030;-65
2023/08/10 10:47:40;;;;;;;4.72;2.47;;;33.80;70.30;;;;;;4878853;29;20037;-65
2023/08/10 10:50:19;;;;;;;5.53;2.45;;;34.00;68.70;;;;;;4879302;29;20383;-64
2023/08/10 10:52:55;;;;;;;2.72;2.50;;;34.70;67.50;;;;;;4878471;29;20037;-64
2023/08/10 10:55:24;;;;;;;6.88;3.10;;;35.10;67.30;;;;;;4877948;29;20069;-64
2023/08/10 10:57:51;;;;;;;2.63;2.13;;;36.20;65.80;;;;;;4862146;29;20040;-65
2023/08/10 11:00:22;;;;;;;3.10;2.53;;;36.60;64.70;;;;;;4877785;29;20136;-64
2023/08/10 11:02:48;;;;;;;3.80;2.75;;;36.30;66.10;;;;;;4878300;29;20103;-64
2023/08/10 11:05:16;;;;;;;4.80;2.10;;;36.30;65.30;;;;;;4862120;29;20048;-64
2023/08/10 11:07:42;;;;;;;4.88;3.45;;;37.20;64.50;;;;;;4877897;29;20165;-65
2023/08/10 11:10:08;;;;;;;3.38;2.10;;;37.70;63.10;;;;;;4877382;29;20128;-64
2023/08/10 11:12:37;;;;;;;3.28;2.15;;;38.00;62.80;;;;;;4877786;29;20033;-63
2023/08/10 11:15:05;;;;;;;5.78;2.28;;;38.30;61.20;;;;;;4877467;29;20063;-64
2023/08/10 11:17:31;;;;;;;4.05;2.20;;;36.10;62.80;;;;;;4877524;29;20041;-64
2023/08/10 11:19:56;;;;;;;4.47;3.25;;;34.00;65.20;;;;;;4877710;29;20624;-64
2023/08/10 11:22:22;;;;;;;3.53;2.50;;;32.70;67.30;;;;;;4877545;29;20029;-63
2023/08/10 11:24:48;;;;;;;4.63;2.42;;;31.20;69.00;;;;;;4944512;29;20126;-63
2023/08/10 11:27:13;;;;;;;3.45;2.40;;;29.90;71.60;;;;;;4955156;29;20023;-64
2023/08/10 11:29:39;;;;;;;4.32;2.50;;;29.30;72.50;;;;;;4955835;29;20023;-65
2023/08/10 11:32:05;;;;;;;4.07;2.10;;;28.70;72.60;;;;;;4955207;29;20054;-65
2023/08/10 11:34:34;;;;;;;4.82;2.50;;;28.40;74.40;;;;;;4955166;28;20041;-64
2023/08/10 11:36:59;;;;;;;6.47;2.17;;;27.90;75.10;;;;;;4958817;29;20023;-65
2023/08/10 11:39:25;;;;;;;3.35;2.38;;;27.80;75.80;;;;;;4958987;29;20098;-63
2023/08/10 11:41:52;;;;;;;3.78;2.47;;;27.30;75.00;;;;;;4958757;29;20079;-64
2023/08/10 11:44:24;;;;;;;3.50;2.60;;;27.10;74.70;;;;;;4941441;29;20023;-65
2023/08/10 11:46:49;;;;;;;3.50;2.50;;;26.80;76.00;;;;;;4941326;29;20042;-65
2023/08/10 11:49:15;;;;;;;6.10;2.45;;;26.60;76.30;;;;;;4958684;29;20041;-65
2023/08/10 11:51:41;;;;;;;5.15;2.50;;;26.50;78.00;;;;;;4958466;29;20047;-64
2023/08/10 11:54:08;;;;;;;4.35;2.33;;;26.40;78.20;;;;;;4958304;29;20135;-64
2023/08/10 11:56:34;;;;;;;5.00;2.65;;;26.50;78.20;;;;;;4941056;29;20127;-64
2023/08/10 11:59:14;;;;;;;4.13;2.25;;;26.50;77.20;;;;;;4958397;29;20103;-64
2023/08/10 12:01:54;;;;;;;3.40;2.25;;;26.40;76.60;;;;;;4941212;29;20110;-63
2023/08/10 12:04:20;;;;;;;3.38;2.00;;;26.40;76.80;;;;;;4958829;29;20029;-64
2023/08/10 12:06:46;;;;;;;3.83;2.55;;;26.10;77.00;;;;;;4958399;29;20031;-64
2023/08/10 12:09:12;;;;;;;;;;;25.80;78.30;;;;;;4959083;29;20023;-64
2023/08/10 12:11:39;;;;;;;3.30;2.15;;;25.80;79.40;;;;;;4958314;29;20005;-64
2023/08/10 12:14:07;;;;;;;2.15;1.95;;;25.90;79.80;;;;;;4958412;29;20031;-64
2023/08/10 12:16:33;;;;;;;4.28;2.30;;;25.80;79.20;;;;;;4958117;29;20588;-63
2023/08/10 12:18:58;;;;;;;;;;;25.70;79.00;;;;;;4941714;29;20035;-63
2023/08/10 12:21:24;;;;;;;3.70;2.25;;;25.70;79.10;;;;;;4959099;29;19913;-64
2023/08/10 12:23:49;;;;;;;;;;;25.70;79.80;;;;;;4942031;29;20027;-64
2023/08/10 12:26:15;;;;;;;4.28;2.28;;;25.80;78.90;;;;;;4958187;29;20004;-64
2023/08/10 12:28:40;;;;;;;;;;;25.70;78.70;;;;;;4958642;29;20086;-64
2023/08/10 12:31:08;;;;;;;3.63;2.13;;;25.70;77.80;;;;;;4958935;29;19906;-64
2023/08/10 12:33:34;;;;;;;2.92;2.20;;;25.70;78.70;;;;;;4959688;29;20098;-65
2023/08/10 12:35:59;;;;;;;;;;;25.70;78.20;;;;;;4941616;29;20027;-64
2023/08/10 12:38:25;;;;;;;3.10;2.20;;;25.70;78.70;;;;;;4959630;29;19951;-65
2023/08/10 12:40:50;;;;;;;;;;;25.80;78.90;;;;;;4959914;29;20031;-64
2023/08/10 12:43:16;;;;;;;6.03;2.20;;;25.90;79.00;;;;;;4961331;29;19907;-65
2023/08/10 12:45:42;;;;;;;;;;;26.00;79.50;;;;;;4965476;29;20023;-65
2023/08/10 12:48:07;;;;;;;4.28;1.73;;;26.00;78.80;;;;;;4963436;28;20415;-65
2023/08/10 12:50:33;;;;;;;;;;;25.90;78.30;;;;;;4963690;29;20031;-64
2023/08/10 12:52:59;;;;;;;3.85;2.22;;;25.90;78.50;;;;;;4942092;29;20348;-64
2023/08/10 12:55:24;;;;;;;;;;;25.90;78.60;;;;;;4958985;29;20472;-64
2023/08/10 12:57:50;;;;;;;4.57;2.33;;;26.00;79.10;;;;;;4958296;29;19961;-64
2023/08/10 13:00:17;;;;;;;;;;;26.00;78.90;;;;;;4958355;29;20047;-70
2023/08/10 13:02:44;;;;;;;4.50;2.38;;;26.00;79.10;;;;;;4957332;29;19910;-64
2023/08/10 13:05:10;;;;;;;4.88;2.20;;;26.20;78.50;;;;;;4940040;29;20031;-66
2023/08/10 13:07:37;;;;;;;3.38;2.47;;;26.20;77.10;;;;;;4957505;29;20035;-64
2023/08/10 13:10:03;;;;;;;8.93;2.55;;;26.00;76.70;;;;;;4957645;29;20039;-64
2023/08/10 13:12:30;;;;;;;3.45;2.00;;;26.20;77.50;;;;;;4957370;29;20023;-64
2023/08/10 13:14:56;;;;;;;3.72;2.20;;;26.30;76.30;;;;;;4940018;29;20023;-63
2023/08/10 13:17:22;;;;;;;5.00;2.45;;;26.30;75.30;;;;;;4957859;29;20031;-64
2023/08/10 13:19:47;;;;;;;;;;;26.40;75.10;;;;;;4958165;29;20024;-63
2023/08/10 13:22:13;;;;;;;4.85;2.47;;;26.30;72.90;;;;;;4957809;29;20368;-64
2023/08/10 13:24:39;;;;;;;4.25;2.20;;;26.20;72.90;;;;;;4958285;29;20119;-64
2023/08/10 13:27:05;;;;;;;6.05;2.15;;;26.30;73.00;;;;;;4940237;29;20515;-64
2023/08/10 13:29:31;;;;;;;;;;;26.40;73.40;;;;;;4959054;29;20027;-64
2023/08/10 13:31:57;;;;;;;3.40;2.33;;;26.50;70.20;;;;;;4959583;29;19911;-63
2023/08/10 13:34:23;;;;;;;3.63;1.90;;;26.40;69.00;;;;;;4958991;29;20034;-64
2023/08/10 13:36:50;;;;;;;2.65;2.00;;;26.40;68.20;;;;;;4957670;29;20023;-62
2023/08/10 13:39:16;;;;;;;3.35;2.35;;;26.60;68.10;;;;;;4939943;29;20035;-64
2023/08/10 13:41:41;;;;;;;;;;;26.70;68.30;;;;;;4958047;29;20380;-64
2023/08/10 13:44:07;;;;;;;4.20;1.88;;;26.70;69.90;;;;;;4960559;29;19957;-64
2023/08/10 13:46:33;;;;;;;4.35;2.03;;;26.80;70.90;;;;;;4942367;29;20034;-64
2023/08/10 13:48:58;;;;;;;2.80;2.03;;;26.70;70.10;;;;;;4960315;29;20023;-64
2023/08/10 13:51:25;;;;;;;4.22;1.77;;;26.60;68.90;;;;;;4960928;29;20388;-64
2023/08/10 13:53:51;;;;;;;3.10;2.03;;;26.60;69.40;;;;;;4941662;29;20019;-65
2023/08/10 13:56:16;;;;;;;;;;;26.70;69.90;;;;;;4958286;29;20110;-64
2023/08/10 13:58:42;;;;;;;4.00;2.15;;;26.70;69.60;;;;;;4956800;28;20286;-64
2023/08/10 14:01:07;;;;;;;3.15;2.35;;;26.80;68.80;;;;;;4956359;29;20456;-64
2023/08/10 14:03:33;;;;;;;4.00;1.95;;;26.90;68.60;;;;;;4956472;29;20499;-63
2023/08/10 14:06:04;;;;;;;4.88;2.13;;;27.00;68.30;;;;;;4956295;29;20082;-63
2023/08/10 14:08:30;;;;;;;5.95;2.33;;;27.00;65.50;;;;;;4956527;29;20550;-64
2023/08/10 14:10:56;;;;;;;3.80;2.10;;;26.80;65.40;;;;;;4956387;29;20027;-64
2023/08/10 14:13:22;;;;;;;3.15;2.05;;;26.90;66.20;;;;;;4956110;29;20027;-64
2023/08/10 14:15:48;;;;;;;2.20;1.60;;;26.90;66.60;;;;;;4955820;29;20432;-64
2023/08/10 14:18:14;;;;;;;3.22;2.33;;;27.10;66.10;;;;;;4956247;29;20110;-64
2023/08/10 14:20:40;;;;;;;2.50;2.03;;;27.10;65.60;;;;;;4955968;29;20523;-63
2023/08/10 14:23:06;;;;;;;2.80;1.80;;;27.00;65.20;;;;;;4956291;29;20034;-63
2023/08/10 14:25:31;;;;;;;3.17;1.88;;;27.00;66.30;;;;;;4938707;29;20027;-63
2023/08/10 14:27:57;;;;;;;4.18;2.05;;;27.00;65.70;;;;;;4955801;29;20028;-64
2023/08/10 14:30:23;;;;;;;2.92;1.75;;;27.10;64.70;;;;;;4938540;29;20027;-63
2023/08/10 14:32:49;;;;;;;2.88;1.90;;;27.10;64.00;;;;;;4955944;29;20042;-63
2023/08/10 14:35:14;;;;;;;3.70;2.10;;;27.10;64.20;;;;;;4955674;29;20070;-63
2023/08/10 14:37:40;;;;;;;2.15;1.80;;;27.10;63.00;;;;;;4938832;29;20058;-64
2023/08/10 14:40:06;;;;;;;2.08;1.88;;;27.00;64.00;;;;;;4956238;29;20091;-64
2023/08/10 14:42:32;;;;;;;3.60;2.15;;;27.00;63.40;;;;;;4956268;29;20038;-65
2023/08/10 14:44:57;;;;;;;3.67;2.35;;;26.80;64.00;;;;;;4955932;29;20027;-63
2023/08/10 14:47:23;;;;;;;3.15;1.90;;;26.90;62.70;;;;;;4955623;29;20476;-64
2023/08/10 14:49:48;;;;;;;3.30;2.00;;;26.90;61.80;;;;;;4955847;29;20031;-64
2023/08/10 14:52:14;;;;;;;3.25;2.00;;;26.80;61.00;;;;;;4955790;29;20110;-64
2023/08/10 14:54:40;;;;;;;2.00;1.80;;;26.80;62.70;;;;;;4955419;29;20039;-64
2023/08/10 14:57:06;;;;;;;2.13;1.77;;;26.80;61.80;;;;;;4938155;29;20503;-64
2023/08/10 14:59:32;;;;;;;2.72;1.95;;;26.80;61.30;;;;;;4955737;29;20042;-65
2023/08/10 15:01:57;;;;;;;;;;;26.70;61.60;;;;;;4938560;29;20027;-64
2023/08/10 15:04:23;;;;;;;2.10;1.65;;;26.70;62.70;;;;;;4955511;29;19907;-64
2023/08/10 15:06:50;;;;;;;;;;;26.60;61.60;;;;;;4938517;29;20024;-63
2023/08/10 15:09:16;;;;;;;2.92;1.75;;;26.60;61.70;;;;;;4955405;28;20386;-63
2023/08/10 15:11:42;;;;;;;2.22;1.80;;;26.60;62.70;;;;;;4955071;29;20037;-64
2023/08/10 15:14:08;;;;;;;2.90;2.17;;;26.70;61.80;;;;;;4955110;29;20102;-64
2023/08/10 15:16:33;;;;;;;;;;;26.60;61.70;;;;;;4955880;29;20134;-64
2023/08/10 15:18:59;;;;;;;3.55;2.22;;;26.60;62.70;;;;;;4955105;29;19929;-65
2023/08/10 15:21:24;;;;;;;4.28;2.85;;;26.70;63.30;;;;;;4955405;29;20027;-64
2023/08/10 15:23:51;;;;;;;2.97;2.35;;;26.70;63.70;;;;;;4955517;29;20054;-63
2023/08/10 15:26:17;;;;;;;4.85;1.80;;;26.70;62.30;;;;;;4955110;29;20023;-63
2023/08/10 15:28:43;;;;;;;2.50;1.80;;;26.70;61.90;;;;;;4937460;29;20106;-64
2023/08/10 15:31:10;;;;;;;2.83;2.10;;;26.80;61.70;;;;;;4955529;29;20063;-63
2023/08/10 15:33:36;;;;;;;2.50;1.90;;;26.90;62.00;;;;;;4955354;29;20027;-64
2023/08/10 15:36:06;;;;;;;2.63;1.88;;;26.90;63.60;;;;;;4955236;29;20027;-64
2023/08/10 15:38:32;;;;;;;4.05;1.85;;;26.90;64.10;;;;;;4955241;29;20473;-64
2023/08/10 15:40:57;;;;;;;4.38;1.80;;;27.00;65.80;;;;;;4954887;29;20035;-63
2023/08/10 15:43:23;;;;;;;2.42;1.80;;;27.00;65.50;;;;;;4955076;29;20098;-65
2023/08/10 15:45:52;;;;;;;2.63;1.92;;;26.90;64.30;;;;;;4937709;29;20114;-64
2023/08/10 15:48:17;;;;;;;3.03;1.98;;;26.90;61.10;;;;;;4938130;29;20032;-64
2023/08/10 15:50:43;;;;;;;2.95;2.35;;;26.70;60.10;;;;;;4955436;29;20030;-64
2023/08/10 15:53:09;;;;;;;2.65;2.10;;;26.60;59.60;;;;;;4938127;29;20039;-63
2023/08/10 15:55:35;;;;;;;3.40;2.97;;;26.60;59.00;;;;;;4937562;29;20126;-63
2023/08/10 15:58:00;;;;;;;19.33;12.68;;;26.90;60.70;;;;;;4955600;29;20079;-67
2023/08/10 16:00:27;;;;;;;3.45;2.72;;;27.00;59.80;;;;;;4955068;29;20079;-63
2023/08/10 16:02:52;;;;;;;2.55;2.00;;;27.10;59.30;;;;;;4955063;29;20102;-64
2023/08/10 16:05:19;;;;;;;5.72;2.20;;;27.10;59.40;;;;;;4954704;29;20122;-63
2023/08/10 16:07:44;;;;;;;2.60;1.98;;;27.10;60.30;;;;;;4955368;29;20037;-64
2023/08/10 16:10:10;;;;;;;3.53;2.17;;;26.90;62.20;;;;;;4955108;29;20023;-66
2023/08/10 16:12:36;;;;;;;4.43;1.77;;;26.90;62.70;;;;;;4953089;29;20075;-64
2023/08/10 16:15:03;;;;;;;3.00;2.38;;;26.70;62.70;;;;;;4955078;29;20023;-65
2023/08/10 16:17:28;;;;;;;2.53;2.00;;;26.60;63.20;;;;;;4938487;29;20054;-65
2023/08/10 16:19:54;;;;;;;;;;;26.60;62.20;;;;;;4955624;29;20023;-65
2023/08/10 16:22:20;;;;;;;1.92;1.73;;;26.50;62.00;;;;;;4958216;28;20347;-65
2023/08/10 16:24:45;;;;;;;2.50;1.80;;;26.40;61.60;;;;;;4959028;29;20031;-66
2023/08/10 16:27:11;;;;;;;2.50;1.83;;;26.40;60.30;;;;;;4958470;29;20174;-66
2023/08/10 16:29:36;;;;;;;2.55;2.03;;;26.40;59.50;;;;;;4958549;29;20042;-66
2023/08/10 16:32:02;;;;;;;;;;;26.40;60.00;;;;;;4959056;29;20030;-66
2023/08/10 16:34:28;;;;;;;3.22;1.95;;;26.30;59.40;;;;;;4958723;29;20004;-66
2023/08/10 16:36:54;;;;;;;;;;;26.30;59.30;;;;;;4958562;29;20047;-65
2023/08/10 16:39:20;;;;;;;4.55;2.10;;;26.30;58.90;;;;;;4958341;29;20049;-65
2023/08/10 16:41:45;;;;;;;2.10;1.83;;;26.30;58.20;;;;;;4957886;29;20026;-65
2023/08/10 16:44:11;;;;;;;;;;;26.30;59.40;;;;;;4958734;29;20031;-65
2023/08/10 16:46:36;;;;;;;3.90;2.00;;;26.20;60.20;;;;;;4958245;29;19929;-65
2023/08/10 16:49:02;;;;;;;3.25;2.13;;;26.20;61.20;;;;;;4960029;29;20038;-65